sensor_id;sensor_type;location;lat;lon;timestamp;temperature;humidity
28520;DHT22;15732;48.534;20.382;2024-03-23T00:55:20;10.90;99.90
28520;DHT22;15732;48.534;20.382;2024-03-23T00:57:47;10.90;99.90
28520;DHT22;15732;48.534;20.382;2024-03-23T01:00:14;10.80;99.90
28520;DHT22;15732;48.534;20.382;2024-03-23T01:02:42;10.80;99.90
28520;DHT22;15732;48.534;20.382;2024-03-23T01:05:10;10.80;99.90
28520;DHT22;15732;48.534;20.382;2024-03-23T01:07:37;10.70;99.90
28520;DHT22;15732;48.534;20.382;2024-03-23T01:10:09;10.70;99.90
28520;DHT22;15732;48.534;20.382;2024-03-23T01:12:36;10.70;99.90
28520;DHT22;15732;48.534;20.382;2024-03-23T01:15:04;10.70;99.90
28520;DHT22;15732;48.534;20.382;2024-03-23T01:17:32;10.60;99.90
28520;DHT22;15732;48.534;20.382;2024-03-23T01:20:00;10.60;99.90
28520;DHT22;15732;48.534;20.382;2024-03-23T01:22:27;10.60;99.90
28520;DHT22;15732;48.534;20.382;2024-03-23T01:24:58;10.60;99.90
28520;DHT22;15732;48.534;20.382;2024-03-23T01:27:25;10.40;99.90
28520;DHT22;15732;48.534;20.382;2024-03-23T01:29:53;10.30;99.90
28520;DHT22;15732;48.534;20.382;2024-03-23T01:32:24;10.30;99.90
28520;DHT22;15732;48.534;20.382;2024-03-23T01:34:52;10.30;99.90
28520;DHT22;15732;48.534;20.382;2024-03-23T01:37:23;10.20;99.90
28520;DHT22;15732;48.534;20.382;2024-03-23T01:39:54;10.30;99.90
28520;DHT22;15732;48.534;20.382;2024-03-23T01:42:22;10.20;99.90
28520;DHT22;15732;48.534;20.382;2024-03-23T01:44:49;10.20;99.90
28520;DHT22;15732;48.534;20.382;2024-03-23T01:47:20;10.20;99.90
28520;DHT22;15732;48.534;20.382;2024-03-23T01:49:47;10.10;99.90
28520;DHT22;15732;48.534;20.382;2024-03-23T01:52:19;10.20;99.90
28520;DHT22;15732;48.534;20.382;2024-03-23T01:54:50;10.20;99.90
28520;DHT22;15732;48.534;20.382;2024-03-23T01:57:21;10.20;99.90
28520;DHT22;15732;48.534;20.382;2024-03-23T01:59:49;10.20;99.90
28520;DHT22;15732;48.534;20.382;2024-03-23T02:02:16;10.20;99.90
28520;DHT22;15732;48.534;20.382;2024-03-23T02:04:49;10.20;99.90
28520;DHT22;15732;48.534;20.382;2024-03-23T02:07:16;10.30;99.90
28520;DHT22;15732;48.534;20.382;2024-03-23T02:09:44;10.20;99.90
28520;DHT22;15732;48.534;20.382;2024-03-23T02:12:15;10.30;99.90
28520;DHT22;15732;48.534;20.382;2024-03-23T02:14:46;10.20;99.90
28520;DHT22;15732;48.534;20.382;2024-03-23T02:17:13;10.10;99.90
28520;DHT22;15732;48.534;20.382;2024-03-23T02:19:40;10.00;99.90
28520;DHT22;15732;48.534;20.382;2024-03-23T02:22:11;9.90;99.90
28520;DHT22;15732;48.534;20.382;2024-03-23T02:24:42;10.00;99.90
28520;DHT22;15732;48.534;20.382;2024-03-23T02:27:09;9.90;99.90
28520;DHT22;15732;48.534;20.382;2024-03-23T02:29:37;10.00;99.90
28520;DHT22;15732;48.534;20.382;2024-03-23T02:32:04;10.00;99.90
28520;DHT22;15732;48.534;20.382;2024-03-23T02:34:32;10.00;99.90
28520;DHT22;15732;48.534;20.382;2024-03-23T02:37:10;10.00;99.90
28520;DHT22;15732;48.534;20.382;2024-03-23T02:39:38;10.00;99.90
28520;DHT22;15732;48.534;20.382;2024-03-23T02:42:06;9.90;99.90
28520;DHT22;15732;48.534;20.382;2024-03-23T02:44:33;9.90;99.90
28520;DHT22;15732;48.534;20.382;2024-03-23T02:47:06;10.00;99.90
28520;DHT22;15732;48.534;20.382;2024-03-23T02:49:33;10.00;99.90
28520;DHT22;15732;48.534;20.382;2024-03-23T02:52:01;10.00;99.90
28520;DHT22;15732;48.534;20.382;2024-03-23T02:54:28;10.00;99.90
28520;DHT22;15732;48.534;20.382;2024-03-23T02:56:59;9.90;99.90
28520;DHT22;15732;48.534;20.382;2024-03-23T02:59:27;10.00;99.90
28520;DHT22;15732;48.534;20.382;2024-03-23T03:01:54;10.00;99.90
28520;DHT22;15732;48.534;20.382;2024-03-23T03:04:22;10.00;99.90
28520;DHT22;15732;48.534;20.382;2024-03-23T03:06:50;9.90;99.90
28520;DHT22;15732;48.534;20.382;2024-03-23T03:09:17;9.90;99.90
28520;DHT22;15732;48.534;20.382;2024-03-23T03:11:45;9.80;99.90
28520;DHT22;15732;48.534;20.382;2024-03-23T03:14:15;9.80;99.90
28520;DHT22;15732;48.534;20.382;2024-03-23T03:16:43;9.70;99.90
28520;DHT22;15732;48.534;20.382;2024-03-23T03:19:10;9.70;99.90
28520;DHT22;15732;48.534;20.382;2024-03-23T03:21:42;9.70;99.90
28520;DHT22;15732;48.534;20.382;2024-03-23T03:24:09;9.70;99.90
28520;DHT22;15732;48.534;20.382;2024-03-23T03:26:37;9.70;99.90
28520;DHT22;15732;48.534;20.382;2024-03-23T03:29:04;9.70;99.90
28520;DHT22;15732;48.534;20.382;2024-03-23T03:31:32;9.70;99.90
28520;DHT22;15732;48.534;20.382;2024-03-23T03:33:59;9.70;99.90
28520;DHT22;15732;48.534;20.382;2024-03-23T03:36:26;9.70;99.90
28520;DHT22;15732;48.534;20.382;2024-03-23T03:38:54;9.60;99.90
28520;DHT22;15732;48.534;20.382;2024-03-23T03:41:21;9.70;99.90
28520;DHT22;15732;48.534;20.382;2024-03-23T03:43:48;9.60;99.90
28520;DHT22;15732;48.534;20.382;2024-03-23T03:46:16;9.60;99.90
28520;DHT22;15732;48.534;20.382;2024-03-23T03:48:43;9.60;99.90
28520;DHT22;15732;48.534;20.382;2024-03-23T03:51:11;9.60;99.90
28520;DHT22;15732;48.534;20.382;2024-03-23T03:53:39;9.60;99.90
28520;DHT22;15732;48.534;20.382;2024-03-23T03:56:10;9.60;99.90
28520;DHT22;15732;48.534;20.382;2024-03-23T03:58:37;9.60;99.90
28520;DHT22;15732;48.534;20.382;2024-03-23T04:01:04;9.70;99.90
28520;DHT22;15732;48.534;20.382;2024-03-23T04:03:32;9.60;99.90
28520;DHT22;15732;48.534;20.382;2024-03-23T04:05:59;9.60;99.90
28520;DHT22;15732;48.534;20.382;2024-03-23T04:08:26;9.60;99.90
28520;DHT22;15732;48.534;20.382;2024-03-23T04:10:54;9.50;99.90
28520;DHT22;15732;48.534;20.382;2024-03-23T04:13:21;9.50;99.90
28520;DHT22;15732;48.534;20.382;2024-03-23T04:15:48;9.50;99.90
28520;DHT22;15732;48.534;20.382;2024-03-23T04:18:16;9.40;99.90
28520;DHT22;15732;48.534;20.382;2024-03-23T04:20:43;9.40;99.90
28520;DHT22;15732;48.534;20.382;2024-03-23T04:23:11;9.40;99.90
28520;DHT22;15732;48.534;20.382;2024-03-23T04:25:37;9.40;99.90
28520;DHT22;15732;48.534;20.382;2024-03-23T04:28:05;9.30;99.90
28520;DHT22;15732;48.534;20.382;2024-03-23T04:30:36;9.30;99.90
28520;DHT22;15732;48.534;20.382;2024-03-23T04:33:04;9.30;99.90
28520;DHT22;15732;48.534;20.382;2024-03-23T04:35:36;9.30;99.90
28520;DHT22;15732;48.534;20.382;2024-03-23T04:38:03;9.30;99.90
28520;DHT22;15732;48.534;20.382;2024-03-23T04:40:31;9.30;99.90
28520;DHT22;15732;48.534;20.382;2024-03-23T04:42:58;9.20;99.90
28520;DHT22;15732;48.534;20.382;2024-03-23T04:45:25;9.20;99.90
28520;DHT22;15732;48.534;20.382;2024-03-23T04:47:53;9.20;99.90
28520;DHT22;15732;48.534;20.382;2024-03-23T04:50:20;9.20;99.90
28520;DHT22;15732;48.534;20.382;2024-03-23T04:52:47;9.20;99.90
28520;DHT22;15732;48.534;20.382;2024-03-23T04:55:15;9.30;99.90
28520;DHT22;15732;48.534;20.382;2024-03-23T04:57:42;9.30;99.90
28520;DHT22;15732;48.534;20.382;2024-03-23T05:00:10;9.30;99.90
28520;DHT22;15732;48.534;20.382;2024-03-23T05:02:44;9.30;99.90
28520;DHT22;15732;48.534;20.382;2024-03-23T05:05:12;9.30;99.90
28520;DHT22;15732;48.534;20.382;2024-03-23T05:07:43;9.30;99.90
28520;DHT22;15732;48.534;20.382;2024-03-23T05:10:10;9.20;99.90
28520;DHT22;15732;48.534;20.382;2024-03-23T05:12:38;9.20;99.90
28520;DHT22;15732;48.534;20.382;2024-03-23T05:15:06;9.20;99.90
28520;DHT22;15732;48.534;20.382;2024-03-23T05:17:34;9.10;99.90
28520;DHT22;15732;48.534;20.382;2024-03-23T05:20:01;9.10;99.90
28520;DHT22;15732;48.534;20.382;2024-03-23T05:22:29;9.20;99.90
28520;DHT22;15732;48.534;20.382;2024-03-23T05:24:57;9.20;99.90
28520;DHT22;15732;48.534;20.382;2024-03-23T05:27:28;9.20;99.90
28520;DHT22;15732;48.534;20.382;2024-03-23T05:29:55;9.30;99.90
28520;DHT22;15732;48.534;20.382;2024-03-23T05:32:23;9.30;99.90
28520;DHT22;15732;48.534;20.382;2024-03-23T05:34:51;9.30;99.90
28520;DHT22;15732;48.534;20.382;2024-03-23T05:37:23;9.40;99.90
28520;DHT22;15732;48.534;20.382;2024-03-23T05:39:54;9.40;99.90
28520;DHT22;15732;48.534;20.382;2024-03-23T05:42:21;9.40;99.90
28520;DHT22;15732;48.534;20.382;2024-03-23T05:44:48;9.40;99.90
28520;DHT22;15732;48.534;20.382;2024-03-23T05:47:20;9.40;99.90
28520;DHT22;15732;48.534;20.382;2024-03-23T05:49:47;9.40;99.90
28520;DHT22;15732;48.534;20.382;2024-03-23T05:52:15;9.50;99.90
28520;DHT22;15732;48.534;20.382;2024-03-23T05:54:42;9.60;99.90
28520;DHT22;15732;48.534;20.382;2024-03-23T05:57:09;9.60;99.90
28520;DHT22;15732;48.534;20.382;2024-03-23T05:59:38;9.70;99.90
28520;DHT22;15732;48.534;20.382;2024-03-23T06:02:06;9.70;99.90
28520;DHT22;15732;48.534;20.382;2024-03-23T06:04:34;9.70;99.90
28520;DHT22;15732;48.534;20.382;2024-03-23T06:07:02;9.70;99.90
28520;DHT22;15732;48.534;20.382;2024-03-23T06:09:29;9.60;99.90
28520;DHT22;15732;48.534;20.382;2024-03-23T06:11:57;9.50;99.90
28520;DHT22;15732;48.534;20.382;2024-03-23T06:14:25;9.50;99.90
28520;DHT22;15732;48.534;20.382;2024-03-23T06:16:52;9.50;99.90
28520;DHT22;15732;48.534;20.382;2024-03-23T06:19:20;9.50;99.90
28520;DHT22;15732;48.534;20.382;2024-03-23T06:21:47;9.60;99.90
28520;DHT22;15732;48.534;20.382;2024-03-23T06:24:14;9.60;99.90
28520;DHT22;15732;48.534;20.382;2024-03-23T06:26:42;9.50;99.90
28520;DHT22;15732;48.534;20.382;2024-03-23T06:29:09;9.60;99.90
28520;DHT22;15732;48.534;20.382;2024-03-23T06:31:36;9.50;99.90
28520;DHT22;15732;48.534;20.382;2024-03-23T06:34:03;9.50;99.90
28520;DHT22;15732;48.534;20.382;2024-03-23T06:36:34;9.60;99.90
28520;DHT22;15732;48.534;20.382;2024-03-23T06:39:07;9.60;99.90
28520;DHT22;15732;48.534;20.382;2024-03-23T06:41:51;9.70;99.90
28520;DHT22;15732;48.534;20.382;2024-03-23T06:44:22;9.70;99.90
28520;DHT22;15732;48.534;20.382;2024-03-23T06:46:50;9.70;99.90
28520;DHT22;15732;48.534;20.382;2024-03-23T06:49:17;9.80;99.90
28520;DHT22;15732;48.534;20.382;2024-03-23T06:51:48;9.80;99.90
28520;DHT22;15732;48.534;20.382;2024-03-23T06:54:20;9.70;99.90
28520;DHT22;15732;48.534;20.382;2024-03-23T06:56:46;9.70;99.90
28520;DHT22;15732;48.534;20.382;2024-03-23T06:59:14;9.70;99.90
28520;DHT22;15732;48.534;20.382;2024-03-23T07:01:41;9.80;99.90
28520;DHT22;15732;48.534;20.382;2024-03-23T07:04:08;9.80;99.90
28520;DHT22;15732;48.534;20.382;2024-03-23T07:06:43;9.70;99.90
28520;DHT22;15732;48.534;20.382;2024-03-23T07:09:10;9.80;99.90
28520;DHT22;15732;48.534;20.382;2024-03-23T07:11:38;9.80;99.90
28520;DHT22;15732;48.534;20.382;2024-03-23T07:14:05;9.80;99.90
28520;DHT22;15732;48.534;20.382;2024-03-23T07:16:32;9.80;99.90
28520;DHT22;15732;48.534;20.382;2024-03-23T07:19:00;9.80;99.90
28520;DHT22;15732;48.534;20.382;2024-03-23T07:21:31;9.90;99.90
28520;DHT22;15732;48.534;20.382;2024-03-23T07:23:59;10.10;99.90
28520;DHT22;15732;48.534;20.382;2024-03-23T07:26:26;10.20;99.90
28520;DHT22;15732;48.534;20.382;2024-03-23T07:28:53;10.40;99.90
28520;DHT22;15732;48.534;20.382;2024-03-23T07:31:20;10.60;99.90
28520;DHT22;15732;48.534;20.382;2024-03-23T07:33:49;10.70;99.90
28520;DHT22;15732;48.534;20.382;2024-03-23T07:36:16;10.80;99.90
28520;DHT22;15732;48.534;20.382;2024-03-23T07:38:44;10.90;99.90
28520;DHT22;15732;48.534;20.382;2024-03-23T07:41:20;10.90;99.90
28520;DHT22;15732;48.534;20.382;2024-03-23T07:43:47;11.10;99.90
28520;DHT22;15732;48.534;20.382;2024-03-23T07:46:16;11.20;99.90
28520;DHT22;15732;48.534;20.382;2024-03-23T07:48:43;11.50;99.90
28520;DHT22;15732;48.534;20.382;2024-03-23T07:51:31;11.70;99.90
28520;DHT22;15732;48.534;20.382;2024-03-23T07:53:59;11.90;99.90
28520;DHT22;15732;48.534;20.382;2024-03-23T07:56:26;12.00;99.90
28520;DHT22;15732;48.534;20.382;2024-03-23T07:58:54;12.10;99.90
28520;DHT22;15732;48.534;20.382;2024-03-23T08:01:21;12.30;99.90
28520;DHT22;15732;48.534;20.382;2024-03-23T08:03:49;12.40;99.90
28520;DHT22;15732;48.534;20.382;2024-03-23T08:06:17;12.60;99.90
28520;DHT22;15732;48.534;20.382;2024-03-23T08:08:45;12.70;99.90
28520;DHT22;15732;48.534;20.382;2024-03-23T08:11:13;12.80;99.90
28520;DHT22;15732;48.534;20.382;2024-03-23T08:13:41;12.90;99.90
28520;DHT22;15732;48.534;20.382;2024-03-23T08:16:09;13.00;99.90
28520;DHT22;15732;48.534;20.382;2024-03-23T08:18:36;13.00;99.90
28520;DHT22;15732;48.534;20.382;2024-03-23T08:21:05;13.00;99.90
28520;DHT22;15732;48.534;20.382;2024-03-23T08:23:37;13.00;99.90
28520;DHT22;15732;48.534;20.382;2024-03-23T08:26:09;13.00;99.90
28520;DHT22;15732;48.534;20.382;2024-03-23T08:28:37;13.00;99.90
28520;DHT22;15732;48.534;20.382;2024-03-23T08:31:08;13.00;99.90
28520;DHT22;15732;48.534;20.382;2024-03-23T08:33:35;13.00;99.90
28520;DHT22;15732;48.534;20.382;2024-03-23T08:36:06;13.00;99.90
28520;DHT22;15732;48.534;20.382;2024-03-23T08:38:33;13.00;99.90
28520;DHT22;15732;48.534;20.382;2024-03-23T08:41:05;13.00;99.90
28520;DHT22;15732;48.534;20.382;2024-03-23T08:43:40;13.00;99.90
28520;DHT22;15732;48.534;20.382;2024-03-23T08:46:24;13.00;99.90
28520;DHT22;15732;48.534;20.382;2024-03-23T08:48:51;13.00;99.90
28520;DHT22;15732;48.534;20.382;2024-03-23T08:51:19;13.00;99.90
28520;DHT22;15732;48.534;20.382;2024-03-23T08:53:47;13.10;99.90
28520;DHT22;15732;48.534;20.382;2024-03-23T08:56:14;13.10;99.90
28520;DHT22;15732;48.534;20.382;2024-03-23T08:58:45;13.10;99.90
28520;DHT22;15732;48.534;20.382;2024-03-23T09:01:13;13.20;99.90
28520;DHT22;15732;48.534;20.382;2024-03-23T09:03:41;13.20;99.90
28520;DHT22;15732;48.534;20.382;2024-03-23T09:06:12;13.30;99.90
28520;DHT22;15732;48.534;20.382;2024-03-23T09:08:40;13.30;99.90
28520;DHT22;15732;48.534;20.382;2024-03-23T09:11:09;13.40;99.90
28520;DHT22;15732;48.534;20.382;2024-03-23T09:13:37;13.40;99.90
28520;DHT22;15732;48.534;20.382;2024-03-23T09:16:08;13.50;99.90
28520;DHT22;15732;48.534;20.382;2024-03-23T09:18:36;13.60;99.90
28520;DHT22;15732;48.534;20.382;2024-03-23T09:21:10;13.70;99.90
28520;DHT22;15732;48.534;20.382;2024-03-23T09:23:45;13.80;99.90
28520;DHT22;15732;48.534;20.382;2024-03-23T09:26:12;14.00;99.90
28520;DHT22;15732;48.534;20.382;2024-03-23T09:28:39;14.10;99.90
28520;DHT22;15732;48.534;20.382;2024-03-23T09:31:08;14.30;99.90
28520;DHT22;15732;48.534;20.382;2024-03-23T09:33:36;14.50;99.90
28520;DHT22;15732;48.534;20.382;2024-03-23T09:36:06;14.70;99.90
28520;DHT22;15732;48.534;20.382;2024-03-23T09:38:34;14.90;99.90
28520;DHT22;15732;48.534;20.382;2024-03-23T09:41:09;15.00;99.90
28520;DHT22;15732;48.534;20.382;2024-03-23T09:43:36;15.20;99.90
28520;DHT22;15732;48.534;20.382;2024-03-23T09:46:03;15.20;99.90
28520;DHT22;15732;48.534;20.382;2024-03-23T09:48:30;15.20;99.90
28520;DHT22;15732;48.534;20.382;2024-03-23T09:50:59;15.20;99.90
28520;DHT22;15732;48.534;20.382;2024-03-23T09:53:31;15.00;99.90
28520;DHT22;15732;48.534;20.382;2024-03-23T09:55:59;15.00;99.90
28520;DHT22;15732;48.534;20.382;2024-03-23T09:58:26;14.90;99.90
28520;DHT22;15732;48.534;20.382;2024-03-23T10:00:53;14.90;99.90
28520;DHT22;15732;48.534;20.382;2024-03-23T10:03:21;14.90;99.90
28520;DHT22;15732;48.534;20.382;2024-03-23T10:06:02;14.90;99.90
28520;DHT22;15732;48.534;20.382;2024-03-23T10:08:31;14.90;99.90
28520;DHT22;15732;48.534;20.382;2024-03-23T10:11:15;14.90;99.90
28520;DHT22;15732;48.534;20.382;2024-03-23T10:13:43;14.80;99.90
28520;DHT22;15732;48.534;20.382;2024-03-23T10:16:10;14.80;99.90
28520;DHT22;15732;48.534;20.382;2024-03-23T10:18:38;14.90;99.90
28520;DHT22;15732;48.534;20.382;2024-03-23T10:23:33;14.90;99.90
28520;DHT22;15732;48.534;20.382;2024-03-23T10:26:22;14.90;99.90
28520;DHT22;15732;48.534;20.382;2024-03-23T10:28:56;15.00;99.90
28520;DHT22;15732;48.534;20.382;2024-03-23T10:31:42;15.00;99.90
28520;DHT22;15732;48.534;20.382;2024-03-23T10:34:12;15.10;99.90
28520;DHT22;15732;48.534;20.382;2024-03-23T10:36:39;15.10;99.90
28520;DHT22;15732;48.534;20.382;2024-03-23T10:39:08;15.20;99.90
28520;DHT22;15732;48.534;20.382;2024-03-23T10:41:37;15.30;99.90
28520;DHT22;15732;48.534;20.382;2024-03-23T10:44:06;15.40;99.90
28520;DHT22;15732;48.534;20.382;2024-03-23T10:46:33;15.50;99.90
28520;DHT22;15732;48.534;20.382;2024-03-23T10:49:07;15.50;99.90
28520;DHT22;15732;48.534;20.382;2024-03-23T10:51:38;15.60;99.90
28520;DHT22;15732;48.534;20.382;2024-03-23T10:54:06;15.60;99.90
28520;DHT22;15732;48.534;20.382;2024-03-23T10:56:40;15.60;99.90
28520;DHT22;15732;48.534;20.382;2024-03-23T10:59:09;15.60;99.90
28520;DHT22;15732;48.534;20.382;2024-03-23T11:01:42;15.60;99.90
28520;DHT22;15732;48.534;20.382;2024-03-23T11:04:33;15.60;99.90
28520;DHT22;15732;48.534;20.382;2024-03-23T11:07:46;15.60;99.90
28520;DHT22;15732;48.534;20.382;2024-03-23T11:09:48;15.60;99.90
28520;DHT22;15732;48.534;20.382;2024-03-23T11:15:10;15.70;99.90
28520;DHT22;15732;48.534;20.382;2024-03-23T11:17:41;15.80;99.90
28520;DHT22;15732;48.534;20.382;2024-03-23T11:20:09;15.80;99.90
28520;DHT22;15732;48.534;20.382;2024-03-23T11:25:24;15.80;99.90
28520;DHT22;15732;48.534;20.382;2024-03-23T11:27:53;15.80;99.90
28520;DHT22;15732;48.534;20.382;2024-03-23T11:30:22;15.80;99.90
28520;DHT22;15732;48.534;20.382;2024-03-23T11:32:51;15.80;99.90
28520;DHT22;15732;48.534;20.382;2024-03-23T11:35:27;15.80;99.90
28520;DHT22;15732;48.534;20.382;2024-03-23T11:40:40;15.80;99.90
28520;DHT22;15732;48.534;20.382;2024-03-23T11:43:16;15.90;99.90
28520;DHT22;15732;48.534;20.382;2024-03-23T11:45:47;15.90;99.90
28520;DHT22;15732;48.534;20.382;2024-03-23T11:48:24;15.90;99.90
28520;DHT22;15732;48.534;20.382;2024-03-23T11:50:57;16.00;99.90
28520;DHT22;15732;48.534;20.382;2024-03-23T11:53:25;16.00;99.90
28520;DHT22;15732;48.534;20.382;2024-03-23T11:55:59;16.00;99.90
28520;DHT22;15732;48.534;20.382;2024-03-23T11:58:28;16.00;99.90
28520;DHT22;15732;48.534;20.382;2024-03-23T12:01:02;16.00;99.90
28520;DHT22;15732;48.534;20.382;2024-03-23T12:03:31;16.00;99.90
28520;DHT22;15732;48.534;20.382;2024-03-23T12:06:02;16.10;99.90
28520;DHT22;15732;48.534;20.382;2024-03-23T12:08:32;16.10;99.90
28520;DHT22;15732;48.534;20.382;2024-03-23T12:11:13;16.10;99.90
28520;DHT22;15732;48.534;20.382;2024-03-23T12:13:45;16.10;99.90
28520;DHT22;15732;48.534;20.382;2024-03-23T12:16:32;16.10;99.90
28520;DHT22;15732;48.534;20.382;2024-03-23T12:19:05;16.10;99.90
28520;DHT22;15732;48.534;20.382;2024-03-23T12:21:33;16.10;99.90
28520;DHT22;15732;48.534;20.382;2024-03-23T12:24:01;16.10;99.90
28520;DHT22;15732;48.534;20.382;2024-03-23T12:26:28;16.10;99.90
28520;DHT22;15732;48.534;20.382;2024-03-23T12:28:55;16.10;99.90
28520;DHT22;15732;48.534;20.382;2024-03-23T12:31:23;16.10;99.90
28520;DHT22;15732;48.534;20.382;2024-03-23T12:33:51;16.10;99.90
28520;DHT22;15732;48.534;20.382;2024-03-23T12:36:18;16.10;99.90
28520;DHT22;15732;48.534;20.382;2024-03-23T12:38:46;16.10;99.90
28520;DHT22;15732;48.534;20.382;2024-03-23T12:41:26;16.10;99.90
28520;DHT22;15732;48.534;20.382;2024-03-23T12:43:53;16.10;99.90
28520;DHT22;15732;48.534;20.382;2024-03-23T12:46:20;16.10;99.90
28520;DHT22;15732;48.534;20.382;2024-03-23T12:48:49;16.10;99.90
28520;DHT22;15732;48.534;20.382;2024-03-23T12:51:17;16.10;99.90
28520;DHT22;15732;48.534;20.382;2024-03-23T12:53:44;16.20;99.90
28520;DHT22;15732;48.534;20.382;2024-03-23T12:56:14;16.10;99.90
28520;DHT22;15732;48.534;20.382;2024-03-23T12:58:42;16.20;99.90
28520;DHT22;15732;48.534;20.382;2024-03-23T13:01:09;16.20;99.90
28520;DHT22;15732;48.534;20.382;2024-03-23T13:03:36;16.20;99.90
28520;DHT22;15732;48.534;20.382;2024-03-23T13:06:04;16.20;99.90
28520;DHT22;15732;48.534;20.382;2024-03-23T13:08:34;16.20;99.90
28520;DHT22;15732;48.534;20.382;2024-03-23T13:11:01;16.20;99.90
28520;DHT22;15732;48.534;20.382;2024-03-23T13:13:28;16.20;99.90
28520;DHT22;15732;48.534;20.382;2024-03-23T13:15:55;16.30;99.90
28520;DHT22;15732;48.534;20.382;2024-03-23T13:18:23;16.30;99.90
28520;DHT22;15732;48.534;20.382;2024-03-23T13:20:50;16.30;99.90
28520;DHT22;15732;48.534;20.382;2024-03-23T13:23:17;16.30;99.90
28520;DHT22;15732;48.534;20.382;2024-03-23T13:25:54;16.20;99.90
28520;DHT22;15732;48.534;20.382;2024-03-23T13:28:23;16.30;99.90
28520;DHT22;15732;48.534;20.382;2024-03-23T13:30:54;16.20;99.90
28520;DHT22;15732;48.534;20.382;2024-03-23T13:33:21;16.20;99.90
28520;DHT22;15732;48.534;20.382;2024-03-23T13:35:55;16.20;99.90
28520;DHT22;15732;48.534;20.382;2024-03-23T13:38:25;16.20;99.90
28520;DHT22;15732;48.534;20.382;2024-03-23T13:41:12;16.20;99.90
28520;DHT22;15732;48.534;20.382;2024-03-23T13:43:40;16.20;99.90
28520;DHT22;15732;48.534;20.382;2024-03-23T13:46:07;16.20;99.90
28520;DHT22;15732;48.534;20.382;2024-03-23T13:48:34;16.20;99.90
28520;DHT22;15732;48.534;20.382;2024-03-23T13:51:03;16.20;99.90
28520;DHT22;15732;48.534;20.382;2024-03-23T13:53:31;16.20;99.90
28520;DHT22;15732;48.534;20.382;2024-03-23T13:56:01;16.20;99.90
28520;DHT22;15732;48.534;20.382;2024-03-23T13:58:29;16.30;99.90
28520;DHT22;15732;48.534;20.382;2024-03-23T14:00:59;16.30;99.90
28520;DHT22;15732;48.534;20.382;2024-03-23T14:03:26;16.30;99.90
28520;DHT22;15732;48.534;20.382;2024-03-23T14:05:58;16.30;99.90
28520;DHT22;15732;48.534;20.382;2024-03-23T14:08:28;16.30;99.90
28520;DHT22;15732;48.534;20.382;2024-03-23T14:10:55;16.30;99.90
28520;DHT22;15732;48.534;20.382;2024-03-23T14:13:24;16.40;99.90
28520;DHT22;15732;48.534;20.382;2024-03-23T14:16:10;16.40;99.90
28520;DHT22;15732;48.534;20.382;2024-03-23T14:18:38;16.40;99.90
28520;DHT22;15732;48.534;20.382;2024-03-23T14:21:05;16.40;99.90
28520;DHT22;15732;48.534;20.382;2024-03-23T14:23:36;16.40;99.90
28520;DHT22;15732;48.534;20.382;2024-03-23T14:26:04;16.50;99.90
28520;DHT22;15732;48.534;20.382;2024-03-23T14:28:31;16.50;99.90
28520;DHT22;15732;48.534;20.382;2024-03-23T14:31:03;16.50;99.90
28520;DHT22;15732;48.534;20.382;2024-03-23T14:33:37;16.50;99.90
28520;DHT22;15732;48.534;20.382;2024-03-23T14:36:05;16.60;99.90
28520;DHT22;15732;48.534;20.382;2024-03-23T14:38:33;16.60;99.90
28520;DHT22;15732;48.534;20.382;2024-03-23T14:41:00;16.60;99.90
28520;DHT22;15732;48.534;20.382;2024-03-23T14:43:29;16.60;99.90
28520;DHT22;15732;48.534;20.382;2024-03-23T14:46:16;16.60;99.90
28520;DHT22;15732;48.534;20.382;2024-03-23T14:48:47;16.60;99.90
28520;DHT22;15732;48.534;20.382;2024-03-23T14:51:14;16.60;99.90
28520;DHT22;15732;48.534;20.382;2024-03-23T14:53:45;16.60;99.90
28520;DHT22;15732;48.534;20.382;2024-03-23T14:56:13;16.60;99.90
28520;DHT22;15732;48.534;20.382;2024-03-23T14:58:42;16.60;99.90
28520;DHT22;15732;48.534;20.382;2024-03-23T15:01:09;16.60;99.90
28520;DHT22;15732;48.534;20.382;2024-03-23T15:03:37;16.60;99.90
28520;DHT22;15732;48.534;20.382;2024-03-23T15:06:06;16.60;99.90
28520;DHT22;15732;48.534;20.382;2024-03-23T15:08:36;16.60;99.90
28520;DHT22;15732;48.534;20.382;2024-03-23T15:11:04;16.50;99.90
28520;DHT22;15732;48.534;20.382;2024-03-23T15:13:37;16.50;99.90
28520;DHT22;15732;48.534;20.382;2024-03-23T15:16:05;16.50;99.90
28520;DHT22;15732;48.534;20.382;2024-03-23T15:18:33;16.50;99.90
28520;DHT22;15732;48.534;20.382;2024-03-23T15:21:04;16.50;99.90
28520;DHT22;15732;48.534;20.382;2024-03-23T15:23:37;16.50;99.90
28520;DHT22;15732;48.534;20.382;2024-03-23T15:26:08;16.50;99.90
28520;DHT22;15732;48.534;20.382;2024-03-23T15:28:39;16.50;99.90
28520;DHT22;15732;48.534;20.382;2024-03-23T15:31:25;16.50;99.90
28520;DHT22;15732;48.534;20.382;2024-03-23T15:33:52;16.50;99.90
28520;DHT22;15732;48.534;20.382;2024-03-23T15:36:19;16.50;99.90
28520;DHT22;15732;48.534;20.382;2024-03-23T15:38:47;16.50;99.90
28520;DHT22;15732;48.534;20.382;2024-03-23T15:41:15;16.60;99.90
28520;DHT22;15732;48.534;20.382;2024-03-23T15:43:46;16.50;99.90
28520;DHT22;15732;48.534;20.382;2024-03-23T15:46:13;16.50;99.90
28520;DHT22;15732;48.534;20.382;2024-03-23T15:48:41;16.50;99.90
28520;DHT22;15732;48.534;20.382;2024-03-23T15:51:13;16.50;99.90
28520;DHT22;15732;48.534;20.382;2024-03-23T15:53:40;16.50;99.90
28520;DHT22;15732;48.534;20.382;2024-03-23T15:56:08;16.40;99.90
28520;DHT22;15732;48.534;20.382;2024-03-23T15:58:35;16.40;99.90
28520;DHT22;15732;48.534;20.382;2024-03-23T16:01:09;16.40;99.90
28520;DHT22;15732;48.534;20.382;2024-03-23T16:03:37;16.40;99.90
28520;DHT22;15732;48.534;20.382;2024-03-23T16:06:06;16.30;99.90
28520;DHT22;15732;48.534;20.382;2024-03-23T16:08:36;16.30;99.90
28520;DHT22;15732;48.534;20.382;2024-03-23T16:11:04;16.30;99.90
28520;DHT22;15732;48.534;20.382;2024-03-23T16:13:32;16.30;99.90
28520;DHT22;15732;48.534;20.382;2024-03-23T16:16:05;16.30;99.90
28520;DHT22;15732;48.534;20.382;2024-03-23T16:18:55;16.20;99.90
28520;DHT22;15732;48.534;20.382;2024-03-23T16:21:23;16.20;99.90
28520;DHT22;15732;48.534;20.382;2024-03-23T16:23:50;16.20;99.90
28520;DHT22;15732;48.534;20.382;2024-03-23T16:26:21;16.20;99.90
28520;DHT22;15732;48.534;20.382;2024-03-23T16:28:49;16.10;99.90
28520;DHT22;15732;48.534;20.382;2024-03-23T16:31:16;16.10;99.90
28520;DHT22;15732;48.534;20.382;2024-03-23T16:33:44;16.00;99.90
28520;DHT22;15732;48.534;20.382;2024-03-23T16:36:11;16.00;99.90
28520;DHT22;15732;48.534;20.382;2024-03-23T16:38:40;16.00;99.90